sensor_id;sensor_type;location;lat;lon;timestamp;pressure;altitude;pressure_sealevel;temperature;humidity
76108;BME280;64834;52.516;10.528;2023-08-21T00:01:51;101573.78;;;20.33;91.41
76108;BME280;64834;52.516;10.528;2023-08-21T00:04:17;101577.38;;;20.35;91.22
76108;BME280;64834;52.516;10.528;2023-08-21T00:06:42;101574.75;;;20.36;90.65
76108;BME280;64834;52.516;10.528;2023-08-21T00:09:08;101576.63;;;20.39;90.22
76108;BME280;64834;52.516;10.528;2023-08-21T00:11:34;101568.63;;;20.37;90.33
76108;BME280;64834;52.516;10.528;2023-08-21T00:13:59;101573.13;;;20.40;90.94
76108;BME280;64834;52.516;10.528;2023-08-21T00:16:25;101575.81;;;20.41;90.27
76108;BME280;64834;52.516;10.528;2023-08-21T00:18:51;101580.03;;;20.35;90.61
76108;BME280;64834;52.516;10.528;2023-08-21T00:21:17;101577.50;;;20.38;91.04
76108;BME280;64834;52.516;10.528;2023-08-21T00:23:42;101577.31;;;20.32;90.73
76108;BME280;64834;52.516;10.528;2023-08-21T00:26:07;101582.44;;;20.26;91.01
76108;BME280;64834;52.516;10.528;2023-08-21T00:28:33;101583.91;;;20.16;91.51
76108;BME280;64834;52.516;10.528;2023-08-21T00:31:01;101580.81;;;20.02;92.08
76108;BME280;64834;52.516;10.528;2023-08-21T00:33:27;101584.31;;;20.00;92.70
76108;BME280;64834;52.516;10.528;2023-08-21T00:35:52;101581.44;;;19.93;93.46
76108;BME280;64834;52.516;10.528;2023-08-21T00:38:17;101584.00;;;19.90;93.33
76108;BME280;64834;52.516;10.528;2023-08-21T00:40:43;101578.59;;;19.87;93.53
76108;BME280;64834;52.516;10.528;2023-08-21T00:43:08;101572.03;;;19.76;94.79
76108;BME280;64834;52.516;10.528;2023-08-21T00:45:33;101570.69;;;19.62;95.50
76108;BME280;64834;52.516;10.528;2023-08-21T00:47:59;101565.19;;;19.57;95.87
76108;BME280;64834;52.516;10.528;2023-08-21T00:50:24;101566.94;;;19.57;95.77
76108;BME280;64834;52.516;10.528;2023-08-21T00:52:50;101559.88;;;19.57;95.95
76108;BME280;64834;52.516;10.528;2023-08-21T00:55:15;101564.88;;;19.48;96.20
76108;BME280;64834;52.516;10.528;2023-08-21T00:57:40;101568.94;;;19.37;97.05
76108;BME280;64834;52.516;10.528;2023-08-21T01:00:07;101557.25;;;19.32;97.34
76108;BME280;64834;52.516;10.528;2023-08-21T01:02:35;101561.75;;;19.34;96.79
76108;BME280;64834;52.516;10.528;2023-08-21T01:05:00;101556.25;;;19.28;96.37
76108;BME280;64834;52.516;10.528;2023-08-21T01:07:26;101557.09;;;19.27;96.70
76108;BME280;64834;52.516;10.528;2023-08-21T01:10:52;101563.00;;;19.19;96.76
76108;BME280;64834;52.516;10.528;2023-08-21T01:13:02;101559.97;;;19.08;97.51
76108;BME280;64834;52.516;10.528;2023-08-21T01:15:31;101553.75;;;19.07;96.64
76108;BME280;64834;52.516;10.528;2023-08-21T01:17:57;101553.84;;;19.10;96.66
76108;BME280;64834;52.516;10.528;2023-08-21T01:20:23;101557.31;;;19.08;96.82
76108;BME280;64834;52.516;10.528;2023-08-21T01:22:48;101553.63;;;19.04;96.34
76108;BME280;64834;52.516;10.528;2023-08-21T01:25:15;101558.03;;;19.04;97.01
76108;BME280;64834;52.516;10.528;2023-08-21T01:27:46;101556.94;;;18.97;97.35
76108;BME280;64834;52.516;10.528;2023-08-21T01:30:13;101555.75;;;18.89;97.50
76108;BME280;64834;52.516;10.528;2023-08-21T01:35:27;101559.28;;;18.66;100.00
76108;BME280;64834;52.516;10.528;2023-08-21T01:37:55;101552.09;;;18.62;100.00
76108;BME280;64834;52.516;10.528;2023-08-21T01:40:24;101547.56;;;18.59;100.00
76108;BME280;64834;52.516;10.528;2023-08-21T01:42:49;101540.47;;;18.58;100.00
76108;BME280;64834;52.516;10.528;2023-08-21T01:45:15;101542.88;;;18.52;100.00
76108;BME280;64834;52.516;10.528;2023-08-21T01:47:40;101535.63;;;18.46;100.00
76108;BME280;64834;52.516;10.528;2023-08-21T01:50:06;101550.56;;;18.44;100.00
76108;BME280;64834;52.516;10.528;2023-08-21T01:52:32;101547.78;;;18.41;100.00
76108;BME280;64834;52.516;10.528;2023-08-21T01:54:58;101550.50;;;18.43;100.00
76108;BME280;64834;52.516;10.528;2023-08-21T01:57:23;101553.09;;;18.41;99.48
76108;BME280;64834;52.516;10.528;2023-08-21T01:59:48;101543.22;;;18.37;98.03
76108;BME280;64834;52.516;10.528;2023-08-21T02:02:14;101558.28;;;18.38;97.42
76108;BME280;64834;52.516;10.528;2023-08-21T02:04:39;101551.28;;;18.40;96.84
76108;BME280;64834;52.516;10.528;2023-08-21T02:07:04;101556.13;;;18.28;98.28
76108;BME280;64834;52.516;10.528;2023-08-21T02:09:30;101548.06;;;18.25;98.99
76108;BME280;64834;52.516;10.528;2023-08-21T02:11:55;101553.09;;;18.17;99.39
76108;BME280;64834;52.516;10.528;2023-08-21T02:14:20;101551.00;;;18.10;100.00
76108;BME280;64834;52.516;10.528;2023-08-21T02:16:46;101547.13;;;18.00;100.00
76108;BME280;64834;52.516;10.528;2023-08-21T02:19:11;101553.94;;;17.94;100.00
76108;BME280;64834;52.516;10.528;2023-08-21T02:21:36;101557.22;;;17.88;100.00
76108;BME280;64834;52.516;10.528;2023-08-21T02:24:02;101551.13;;;17.91;100.00
76108;BME280;64834;52.516;10.528;2023-08-21T02:26:27;101553.78;;;17.91;100.00
76108;BME280;64834;52.516;10.528;2023-08-21T02:28:52;101548.56;;;17.92;100.00
76108;BME280;64834;52.516;10.528;2023-08-21T02:31:18;101548.25;;;17.85;100.00
76108;BME280;64834;52.516;10.528;2023-08-21T02:33:44;101551.88;;;17.87;100.00
76108;BME280;64834;52.516;10.528;2023-08-21T02:36:09;101549.75;;;17.78;100.00
76108;BME280;64834;52.516;10.528;2023-08-21T02:38:35;101556.69;;;17.74;100.00
76108;BME280;64834;52.516;10.528;2023-08-21T02:41:00;101549.38;;;17.69;99.78
76108;BME280;64834;52.516;10.528;2023-08-21T02:43:26;101554.34;;;17.61;100.00
76108;BME280;64834;52.516;10.528;2023-08-21T02:45:51;101553.19;;;17.55;100.00
76108;BME280;64834;52.516;10.528;2023-08-21T02:48:16;101558.09;;;17.45;100.00
76108;BME280;64834;52.516;10.528;2023-08-21T02:50:42;101552.84;;;17.47;100.00
76108;BME280;64834;52.516;10.528;2023-08-21T02:53:08;101556.34;;;17.46;100.00
76108;BME280;64834;52.516;10.528;2023-08-21T02:55:33;101551.78;;;17.42;100.00
76108;BME280;64834;52.516;10.528;2023-08-21T02:57:59;101558.88;;;17.43;100.00
76108;BME280;64834;52.516;10.528;2023-08-21T03:00:24;101556.63;;;17.31;100.00
76108;BME280;64834;52.516;10.528;2023-08-21T03:02:49;101561.22;;;17.35;100.00
76108;BME280;64834;52.516;10.528;2023-08-21T03:05:15;101564.13;;;17.41;100.00
76108;BME280;64834;52.516;10.528;2023-08-21T03:07:40;101569.28;;;17.38;100.00
76108;BME280;64834;52.516;10.528;2023-08-21T03:10:06;101555.84;;;17.34;100.00
76108;BME280;64834;52.516;10.528;2023-08-21T03:12:32;101556.44;;;17.26;100.00
76108;BME280;64834;52.516;10.528;2023-08-21T03:14:57;101554.50;;;17.22;100.00
76108;BME280;64834;52.516;10.528;2023-08-21T03:17:23;101559.72;;;17.21;100.00
76108;BME280;64834;52.516;10.528;2023-08-21T03:19:49;101558.13;;;17.24;100.00
76108;BME280;64834;52.516;10.528;2023-08-21T03:22:14;101560.44;;;17.17;100.00
76108;BME280;64834;52.516;10.528;2023-08-21T03:24:40;101555.91;;;17.14;100.00
76108;BME280;64834;52.516;10.528;2023-08-21T03:27:05;101555.97;;;17.16;100.00
76108;BME280;64834;52.516;10.528;2023-08-21T03:29:30;101552.34;;;17.14;100.00
76108;BME280;64834;52.516;10.528;2023-08-21T03:31:57;101557.66;;;17.14;100.00
76108;BME280;64834;52.516;10.528;2023-08-21T03:34:23;101553.91;;;17.09;100.00
76108;BME280;64834;52.516;10.528;2023-08-21T03:36:48;101556.22;;;17.01;100.00
76108;BME280;64834;52.516;10.528;2023-08-21T03:39:13;101551.56;;;16.95;100.00
76108;BME280;64834;52.516;10.528;2023-08-21T03:41:38;101551.63;;;16.97;100.00
76108;BME280;64834;52.516;10.528;2023-08-21T03:44:04;101551.63;;;16.97;100.00
76108;BME280;64834;52.516;10.528;2023-08-21T03:46:29;101549.81;;;16.96;100.00
76108;BME280;64834;52.516;10.528;2023-08-21T03:48:55;101550.66;;;16.95;100.00
76108;BME280;64834;52.516;10.528;2023-08-21T03:51:20;101548.75;;;16.91;100.00
76108;BME280;64834;52.516;10.528;2023-08-21T03:53:45;101553.03;;;16.89;100.00
76108;BME280;64834;52.516;10.528;2023-08-21T03:56:11;101547.38;;;17.01;100.00
76108;BME280;64834;52.516;10.528;2023-08-21T03:58:36;101541.56;;;17.09;100.00
76108;BME280;64834;52.516;10.528;2023-08-21T04:01:01;101546.53;;;17.02;100.00
76108;BME280;64834;52.516;10.528;2023-08-21T04:03:27;101543.19;;;17.06;100.00
76108;BME280;64834;52.516;10.528;2023-08-21T04:05:55;101553.78;;;17.06;100.00
76108;BME280;64834;52.516;10.528;2023-08-21T04:08:22;101555.59;;;17.07;100.00
76108;BME280;64834;52.516;10.528;2023-08-21T04:10:47;101551.09;;;17.04;100.00
76108;BME280;64834;52.516;10.528;2023-08-21T04:13:13;101555.53;;;17.05;100.00
76108;BME280;64834;52.516;10.528;2023-08-21T04:15:38;101563.47;;;17.05;100.00
76108;BME280;64834;52.516;10.528;2023-08-21T04:18:04;101567.91;;;17.06;100.00
76108;BME280;64834;52.516;10.528;2023-08-21T04:20:29;101576.69;;;17.05;100.00
76108;BME280;64834;52.516;10.528;2023-08-21T04:22:55;101570.22;;;16.98;100.00
76108;BME280;64834;52.516;10.528;2023-08-21T04:25:20;101576.34;;;16.97;100.00
76108;BME280;64834;52.516;10.528;2023-08-21T04:27:45;101578.00;;;16.95;100.00
76108;BME280;64834;52.516;10.528;2023-08-21T04:30:11;101581.66;;;16.97;100.00
76108;BME280;64834;52.516;10.528;2023-08-21T04:32:36;101586.34;;;17.05;100.00
76108;BME280;64834;52.516;10.528;2023-08-21T04:35:02;101582.25;;;17.11;100.00
76108;BME280;64834;52.516;10.528;2023-08-21T04:37:27;101590.50;;;17.19;100.00
76108;BME280;64834;52.516;10.528;2023-08-21T04:39:53;101586.09;;;17.19;100.00
76108;BME280;64834;52.516;10.528;2023-08-21T04:42:19;101591.44;;;17.21;100.00
76108;BME280;64834;52.516;10.528;2023-08-21T04:44:44;101589.91;;;17.26;100.00
76108;BME280;64834;52.516;10.528;2023-08-21T04:47:23;101596.31;;;17.31;100.00
76108;BME280;64834;52.516;10.528;2023-08-21T04:49:50;101590.19;;;17.32;100.00
76108;BME280;64834;52.516;10.528;2023-08-21T04:52:15;101588.91;;;17.43;100.00
76108;BME280;64834;52.516;10.528;2023-08-21T04:54:41;101588.25;;;17.49;100.00
76108;BME280;64834;52.516;10.528;2023-08-21T04:57:06;101580.38;;;17.50;100.00
76108;BME280;64834;52.516;10.528;2023-08-21T04:59:31;101591.06;;;17.53;100.00
76108;BME280;64834;52.516;10.528;2023-08-21T05:01:57;101581.72;;;17.62;100.00
76108;BME280;64834;52.516;10.528;2023-08-21T05:04:22;101584.69;;;17.69;100.00
76108;BME280;64834;52.516;10.528;2023-08-21T05:06:47;101590.03;;;17.71;100.00
76108;BME280;64834;52.516;10.528;2023-08-21T05:09:13;101593.16;;;17.82;100.00
76108;BME280;64834;52.516;10.528;2023-08-21T05:11:38;101602.03;;;18.04;100.00
76108;BME280;64834;52.516;10.528;2023-08-21T05:14:03;101601.66;;;18.18;100.00
76108;BME280;64834;52.516;10.528;2023-08-21T05:16:29;101600.03;;;18.21;100.00
76108;BME280;64834;52.516;10.528;2023-08-21T05:18:54;101587.81;;;18.25;100.00
76108;BME280;64834;52.516;10.528;2023-08-21T05:21:19;101603.09;;;18.32;100.00
76108;BME280;64834;52.516;10.528;2023-08-21T05:23:45;101600.88;;;18.43;100.00
76108;BME280;64834;52.516;10.528;2023-08-21T05:26:10;101604.47;;;18.45;100.00
76108;BME280;64834;52.516;10.528;2023-08-21T05:28:35;101614.75;;;18.36;100.00
76108;BME280;64834;52.516;10.528;2023-08-21T05:31:01;101613.56;;;18.29;100.00
76108;BME280;64834;52.516;10.528;2023-08-21T05:33:26;101612.66;;;18.28;100.00
76108;BME280;64834;52.516;10.528;2023-08-21T05:35:51;101615.88;;;18.20;100.00
76108;BME280;64834;52.516;10.528;2023-08-21T05:38:17;101615.88;;;18.20;100.00
76108;BME280;64834;52.516;10.528;2023-08-21T05:40:42;101616.81;;;18.22;100.00
76108;BME280;64834;52.516;10.528;2023-08-21T05:43:08;101615.75;;;18.39;100.00
76108;BME280;64834;52.516;10.528;2023-08-21T05:45:33;101624.41;;;18.57;100.00
76108;BME280;64834;52.516;10.528;2023-08-21T05:47:58;101626.31;;;18.62;100.00
76108;BME280;64834;52.516;10.528;2023-08-21T05:50:24;101635.81;;;18.55;100.00
76108;BME280;64834;52.516;10.528;2023-08-21T05:52:49;101643.44;;;18.47;100.00
76108;BME280;64834;52.516;10.528;2023-08-21T05:55:14;101634.66;;;18.48;100.00
76108;BME280;64834;52.516;10.528;2023-08-21T05:57:40;101633.53;;;18.66;100.00
76108;BME280;64834;52.516;10.528;2023-08-21T06:00:05;101638.72;;;18.85;100.00
76108;BME280;64834;52.516;10.528;2023-08-21T06:02:34;101638.25;;;18.97;100.00
76108;BME280;64834;52.516;10.528;2023-08-21T06:04:59;101639.38;;;19.03;100.00
76108;BME280;64834;52.516;10.528;2023-08-21T06:07:25;101637.72;;;19.05;100.00
76108;BME280;64834;52.516;10.528;2023-08-21T06:09:50;101635.72;;;19.00;100.00
76108;BME280;64834;52.516;10.528;2023-08-21T06:12:15;101638.53;;;19.04;100.00
76108;BME280;64834;52.516;10.528;2023-08-21T06:14:41;101642.69;;;19.22;100.00
76108;BME280;64834;52.516;10.528;2023-08-21T06:17:06;101649.00;;;19.24;100.00
76108;BME280;64834;52.516;10.528;2023-08-21T06:19:32;101652.13;;;19.37;100.00
76108;BME280;64834;52.516;10.528;2023-08-21T06:21:57;101644.47;;;19.47;99.18
76108;BME280;64834;52.516;10.528;2023-08-21T06:24:23;101645.94;;;19.62;98.90
76108;BME280;64834;52.516;10.528;2023-08-21T06:26:51;101648.03;;;19.73;98.01
76108;BME280;64834;52.516;10.528;2023-08-21T06:29:16;101644.69;;;19.78;96.27
76108;BME280;64834;52.516;10.528;2023-08-21T06:31:42;101645.66;;;19.80;95.77
76108;BME280;64834;52.516;10.528;2023-08-21T06:34:07;101645.94;;;19.89;95.91
76108;BME280;64834;52.516;10.528;2023-08-21T06:36:32;101656.72;;;19.94;93.40
76108;BME280;64834;52.516;10.528;2023-08-21T06:38:58;101653.00;;;20.16;93.64
76108;BME280;64834;52.516;10.528;2023-08-21T06:41:23;101656.53;;;20.43;91.31
76108;BME280;64834;52.516;10.528;2023-08-21T06:43:50;101657.75;;;20.83;89.06
76108;BME280;64834;52.516;10.528;2023-08-21T06:46:15;101643.69;;;21.19;86.64
76108;BME280;64834;52.516;10.528;2023-08-21T06:48:42;101646.75;;;21.66;84.89
76108;BME280;64834;52.516;10.528;2023-08-21T06:51:08;101644.59;;;21.87;82.11
76108;BME280;64834;52.516;10.528;2023-08-21T06:53:34;101650.25;;;22.35;81.77
76108;BME280;64834;52.516;10.528;2023-08-21T06:55:59;101654.47;;;22.67;78.17
76108;BME280;64834;52.516;10.528;2023-08-21T06:58:24;101660.69;;;22.66;77.65
76108;BME280;64834;52.516;10.528;2023-08-21T07:00:50;101650.50;;;22.87;76.93
76108;BME280;64834;52.516;10.528;2023-08-21T07:03:15;101646.25;;;22.97;75.42
76108;BME280;64834;52.516;10.528;2023-08-21T07:05:40;101656.56;;;22.81;73.74
76108;BME280;64834;52.516;10.528;2023-08-21T07:08:06;101647.19;;;23.00;72.99
76108;BME280;64834;52.516;10.528;2023-08-21T07:10:37;101651.94;;;22.73;71.66
76108;BME280;64834;52.516;10.528;2023-08-21T07:13:03;101652.56;;;22.61;73.14
76108;BME280;64834;52.516;10.528;2023-08-21T07:15:29;101657.13;;;22.26;74.06
76108;BME280;64834;52.516;10.528;2023-08-21T07:17:54;101659.78;;;22.64;71.09
76108;BME280;64834;52.516;10.528;2023-08-21T07:20:21;101649.78;;;22.96;69.77
76108;BME280;64834;52.516;10.528;2023-08-21T07:22:46;101653.81;;;22.77;69.67
76108;BME280;64834;52.516;10.528;2023-08-21T07:25:11;101664.50;;;22.77;70.48
76108;BME280;64834;52.516;10.528;2023-08-21T07:27:37;101659.22;;;22.81;69.82
76108;BME280;64834;52.516;10.528;2023-08-21T07:30:02;101663.50;;;22.73;70.54
76108;BME280;64834;52.516;10.528;2023-08-21T07:32:28;101654.06;;;22.48;70.23
76108;BME280;64834;52.516;10.528;2023-08-21T07:34:53;101662.69;;;22.37;70.31
76108;BME280;64834;52.516;10.528;2023-08-21T07:37:21;101651.75;;;22.24;70.92
76108;BME280;64834;52.516;10.528;2023-08-21T07:39:47;101648.19;;;22.24;72.36
76108;BME280;64834;52.516;10.528;2023-08-21T07:42:12;101647.28;;;22.23;71.59
76108;BME280;64834;52.516;10.528;2023-08-21T07:44:39;101660.75;;;22.29;73.12
76108;BME280;64834;52.516;10.528;2023-08-21T07:47:04;101672.13;;;22.21;72.98
76108;BME280;64834;52.516;10.528;2023-08-21T07:49:31;101676.50;;;22.19;74.27
76108;BME280;64834;52.516;10.528;2023-08-21T07:51:56;101674.75;;;22.19;74.41
76108;BME280;64834;52.516;10.528;2023-08-21T07:54:21;101667.59;;;22.18;74.66
76108;BME280;64834;52.516;10.528;2023-08-21T07:56:47;101670.13;;;22.12;74.42
76108;BME280;64834;52.516;10.528;2023-08-21T07:59:12;101663.09;;;22.16;74.38
76108;BME280;64834;52.516;10.528;2023-08-21T08:01:38;101658.69;;;22.18;74.08
76108;BME280;64834;52.516;10.528;2023-08-21T08:04:03;101654.94;;;22.46;73.85
76108;BME280;64834;52.516;10.528;2023-08-21T08:06:29;101654.19;;;22.53;72.34
76108;BME280;64834;52.516;10.528;2023-08-21T08:08:54;101651.94;;;22.73;72.54
76108;BME280;64834;52.516;10.528;2023-08-21T08:11:19;101660.94;;;22.76;71.26
76108;BME280;64834;52.516;10.528;2023-08-21T08:13:45;101664.03;;;22.96;70.75
76108;BME280;64834;52.516;10.528;2023-08-21T08:16:10;101660.28;;;23.32;68.52
76108;BME280;64834;52.516;10.528;2023-08-21T08:18:35;101661.75;;;23.16;68.01
76108;BME280;64834;52.516;10.528;2023-08-21T08:21:01;101664.53;;;23.21;68.86
76108;BME280;64834;52.516;10.528;2023-08-21T08:23:26;101668.88;;;23.15;67.27
76108;BME280;64834;52.516;10.528;2023-08-21T08:25:51;101673.25;;;23.12;67.36
76108;BME280;64834;52.516;10.528;2023-08-21T08:28:17;101669.28;;;22.92;66.48
76108;BME280;64834;52.516;10.528;2023-08-21T08:30:42;101671.63;;;22.78;68.47
76108;BME280;64834;52.516;10.528;2023-08-21T08:33:07;101682.41;;;22.82;68.59
76108;BME280;64834;52.516;10.528;2023-08-21T08:35:32;101676.09;;;22.79;68.37
76108;BME280;64834;52.516;10.528;2023-08-21T08:37:58;101680.63;;;22.83;66.86
76108;BME280;64834;52.516;10.528;2023-08-21T08:40:23;101677.66;;;23.10;65.56
76108;BME280;64834;52.516;10.528;2023-08-21T08:42:48;101680.22;;;23.05;65.73
76108;BME280;64834;52.516;10.528;2023-08-21T08:45:14;101671.56;;;23.17;65.34
76108;BME280;64834;52.516;10.528;2023-08-21T08:47:40;101679.63;;;23.64;63.34
76108;BME280;64834;52.516;10.528;2023-08-21T08:50:06;101681.53;;;23.71;61.49
76108;BME280;64834;52.516;10.528;2023-08-21T08:52:37;101681.19;;;24.03;62.26
76108;BME280;64834;52.516;10.528;2023-08-21T08:55:03;101677.03;;;24.21;59.12
76108;BME280;64834;52.516;10.528;2023-08-21T08:57:28;101678.63;;;24.12;59.89
76108;BME280;64834;52.516;10.528;2023-08-21T08:59:54;101676.75;;;24.05;59.73
76108;BME280;64834;52.516;10.528;2023-08-21T09:02:19;101678.88;;;23.73;60.73
76108;BME280;64834;52.516;10.528;2023-08-21T09:04:44;101677.06;;;23.70;62.28
76108;BME280;64834;52.516;10.528;2023-08-21T09:07:11;101677.88;;;23.66;60.84
76108;BME280;64834;52.516;10.528;2023-08-21T09:09:41;101675.41;;;23.77;61.31
76108;BME280;64834;52.516;10.528;2023-08-21T09:12:11;101673.09;;;24.00;60.39
76108;BME280;64834;52.516;10.528;2023-08-21T09:14:38;101668.72;;;24.06;61.00
76108;BME280;64834;52.516;10.528;2023-08-21T09:17:03;101672.41;;;24.70;60.50
76108;BME280;64834;52.516;10.528;2023-08-21T09:19:29;101665.63;;;25.01;58.50
76108;BME280;64834;52.516;10.528;2023-08-21T09:21:54;101663.97;;;24.43;58.66
76108;BME280;64834;52.516;10.528;2023-08-21T09:24:19;101664.22;;;24.60;58.69
76108;BME280;64834;52.516;10.528;2023-08-21T09:26:45;101662.59;;;24.71;58.85
76108;BME280;64834;52.516;10.528;2023-08-21T09:29:10;101659.66;;;24.53;60.35
76108;BME280;64834;52.516;10.528;2023-08-21T09:31:36;101654.34;;;24.56;59.35
76108;BME280;64834;52.516;10.528;2023-08-21T09:34:03;101658.78;;;24.52;60.08
76108;BME280;64834;52.516;10.528;2023-08-21T09:36:31;101659.63;;;24.51;60.23
76108;BME280;64834;52.516;10.528;2023-08-21T09:38:56;101658.81;;;24.57;61.42
76108;BME280;64834;52.516;10.528;2023-08-21T09:41:25;101657.06;;;24.59;58.68
76108;BME280;64834;52.516;10.528;2023-08-21T09:43:51;101659.03;;;24.70;57.83
76108;BME280;64834;52.516;10.528;2023-08-21T09:46:17;101655.56;;;24.81;57.95
76108;BME280;64834;52.516;10.528;2023-08-21T09:48:49;101663.31;;;24.59;57.50
76108;BME280;64834;52.516;10.528;2023-08-21T09:51:16;101664.38;;;24.70;53.65
76108;BME280;64834;52.516;10.528;2023-08-21T09:53:42;101655.97;;;25.10;52.51
76108;BME280;64834;52.516;10.528;2023-08-21T09:56:07;101652.47;;;25.15;50.95
76108;BME280;64834;52.516;10.528;2023-08-21T09:58:35;101657.06;;;25.32;50.11
76108;BME280;64834;52.516;10.528;2023-08-21T10:01:01;101659.75;;;25.30;51.75
76108;BME280;64834;52.516;10.528;2023-08-21T10:03:31;101663.66;;;24.85;54.08
76108;BME280;64834;52.516;10.528;2023-08-21T10:05:58;101648.56;;;24.93;53.92
76108;BME280;64834;52.516;10.528;2023-08-21T10:08:25;101652.47;;;25.17;53.14
76108;BME280;64834;52.516;10.528;2023-08-21T10:10:50;101658.72;;;25.17;52.85
76108;BME280;64834;52.516;10.528;2023-08-21T10:13:16;101652.53;;;25.24;51.78
76108;BME280;64834;52.516;10.528;2023-08-21T10:15:42;101657.81;;;25.15;53.30
76108;BME280;64834;52.516;10.528;2023-08-21T10:18:19;101655.06;;;25.09;53.70
76108;BME280;64834;52.516;10.528;2023-08-21T10:20:45;101663.66;;;24.85;53.50
76108;BME280;64834;52.516;10.528;2023-08-21T10:23:23;101653.94;;;24.95;53.25
76108;BME280;64834;52.516;10.528;2023-08-21T10:25:54;101669.91;;;24.84;54.62
76108;BME280;64834;52.516;10.528;2023-08-21T10:28:20;101666.22;;;24.76;56.24
76108;BME280;64834;52.516;10.528;2023-08-21T10:30:45;101666.91;;;24.60;56.12
76108;BME280;64834;52.516;10.528;2023-08-21T10:33:10;101660.19;;;24.30;55.69
76108;BME280;64834;52.516;10.528;2023-08-21T10:35:36;101661.00;;;24.26;56.90
76108;BME280;64834;52.516;10.528;2023-08-21T10:38:16;101664.09;;;24.51;55.47
76108;BME280;64834;52.516;10.528;2023-08-21T10:41:07;101661.00;;;24.85;55.24
76108;BME280;64834;52.516;10.528;2023-08-21T10:43:46;101655.00;;;25.05;55.03
76108;BME280;64834;52.516;10.528;2023-08-21T10:46:12;101669.91;;;24.86;53.40
76108;BME280;64834;52.516;10.528;2023-08-21T10:48:39;101667.22;;;24.84;53.37
76108;BME280;64834;52.516;10.528;2023-08-21T10:51:05;101664.28;;;24.64;52.13
76108;BME280;64834;52.516;10.528;2023-08-21T10:53:31;101667.31;;;24.92;52.04
76108;BME280;64834;52.516;10.528;2023-08-21T10:56:01;101653.44;;;25.26;49.79
76108;BME280;64834;52.516;10.528;2023-08-21T10:58:27;101657.75;;;25.11;49.13
76108;BME280;64834;52.516;10.528;2023-08-21T11:00:56;101665.31;;;24.75;50.73
76108;BME280;64834;52.516;10.528;2023-08-21T11:03:22;101666.09;;;24.65;51.09
76108;BME280;64834;52.516;10.528;2023-08-21T11:06:14;101662.75;;;24.85;50.54
76108;BME280;64834;52.516;10.528;2023-08-21T11:08:43;101656.63;;;24.93;50.24
76108;BME280;64834;52.516;10.528;2023-08-21T11:11:10;101651.31;;;24.98;51.31
76108;BME280;64834;52.516;10.528;2023-08-21T11:13:35;101650.66;;;25.14;49.81
76108;BME280;64834;52.516;10.528;2023-08-21T11:16:02;101656.97;;;25.21;50.88
76108;BME280;64834;52.516;10.528;2023-08-21T11:18:36;101653.34;;;25.14;49.35
76108;BME280;64834;52.516;10.528;2023-08-21T11:21:09;101645.91;;;24.95;48.83
76108;BME280;64834;52.516;10.528;2023-08-21T11:23:40;101659.94;;;24.74;48.85
76108;BME280;64834;52.516;10.528;2023-08-21T11:26:07;101641.38;;;24.88;49.15
76108;BME280;64834;52.516;10.528;2023-08-21T11:28:34;101644.34;;;25.11;48.09
76108;BME280;64834;52.516;10.528;2023-08-21T11:31:00;101639.06;;;25.17;49.30
76108;BME280;64834;52.516;10.528;2023-08-21T11:33:26;101645.50;;;25.34;47.99
76108;BME280;64834;52.516;10.528;2023-08-21T11:35:52;101642.91;;;25.43;49.17
76108;BME280;64834;52.516;10.528;2023-08-21T11:38:24;101645.66;;;25.49;49.30
76108;BME280;64834;52.516;10.528;2023-08-21T11:40:57;101642.84;;;25.36;49.40
76108;BME280;64834;52.516;10.528;2023-08-21T11:46:05;101636.88;;;25.69;50.80
76108;BME280;64834;52.516;10.528;2023-08-21T11:48:32;101635.03;;;25.62;49.46
76108;BME280;64834;52.516;10.528;2023-08-21T11:50:57;101628.84;;;25.70;48.60
76108;BME280;64834;52.516;10.528;2023-08-21T11:55:59;101637.59;;;25.46;49.86
76108;BME280;64834;52.516;10.528;2023-08-21T11:58:28;101634.34;;;25.81;49.13
76108;BME280;64834;52.516;10.528;2023-08-21T12:00:54;101629.16;;;26.02;49.32
76108;BME280;64834;52.516;10.528;2023-08-21T12:03:20;101626.94;;;25.57;47.35
76108;BME280;64834;52.516;10.528;2023-08-21T12:05:45;101625.16;;;25.56;48.47
76108;BME280;64834;52.516;10.528;2023-08-21T12:08:11;101628.97;;;25.82;47.67
76108;BME280;64834;52.516;10.528;2023-08-21T12:10:36;101634.44;;;25.90;47.13
76108;BME280;64834;52.516;10.528;2023-08-21T12:13:02;101631.88;;;26.08;47.02
76108;BME280;64834;52.516;10.528;2023-08-21T12:15:27;101631.28;;;26.55;47.05
76108;BME280;64834;52.516;10.528;2023-08-21T12:17:53;101627.78;;;26.72;45.48
76108;BME280;64834;52.516;10.528;2023-08-21T12:20:18;101631.16;;;26.39;45.10
76108;BME280;64834;52.516;10.528;2023-08-21T12:22:44;101628.44;;;26.32;45.97
76108;BME280;64834;52.516;10.528;2023-08-21T12:25:09;101620.41;;;26.34;45.80
76108;BME280;64834;52.516;10.528;2023-08-21T12:27:36;101629.25;;;26.16;45.64
76108;BME280;64834;52.516;10.528;2023-08-21T12:30:01;101627.53;;;26.33;44.55
76108;BME280;64834;52.516;10.528;2023-08-21T12:32:26;101628.34;;;26.17;44.92
76108;BME280;64834;52.516;10.528;2023-08-21T12:34:52;101615.00;;;26.32;43.89
76108;BME280;64834;52.516;10.528;2023-08-21T12:37:17;101613.44;;;26.70;44.09
76108;BME280;64834;52.516;10.528;2023-08-21T12:39:43;101608.25;;;27.11;40.28